Ameagle, West Virginia
Current Conditions -  °F | °C
As of 9:51 PM on Friday 19 Dec 2014 (Local Time) from KBKW Reporting Station
Overcast Overcast  
Wind Chill: 18°   Ceiling: 800
Heat Index: 25°   Visibility: 10mi
Dew Point: 20°   Wind: 6mph
Humidity: 81%   Direction: 10°N
Pressure: 30.18"   Gusts: NA
Location:  37.95°N, 81.42°W
Report Text: KBKW 200251Z AUTO 01005KT 10SM OVC008 M04/M07 A3018 RMK AO2 SLP259 T10391067 58001
Loading
Personal Weather Stations






























Interactive Weather Map New forecast layout! Learn more

10-Day Weather Forecast

Advertisements
Track Severe Weather on mobile